Time;durP1;ratioP1;P1;durP2;ratioP2;P2;SDS_P1;SDS_P2;PMS_P1;PMS_P2;Temp;Humidity;BMP_temperature;BMP_pressure;BME280_temperature;BME280_humidity;BME280_pressure;Samples;Min_cycle;Max_cycle;Signal;HPM_P1;HPM_P2
2024/04/21 00:00:32;;;;;;;;;;;;;;;4.36;100.00;100004.50;5363984;26;19937;-90
2024/04/21 00:02:57;;;;;;;;;;;;;;;4.31;100.00;100001.94;5364972;26;19937;-89
2024/04/21 00:05:23;;;;;;;;;;;;;;;4.31;100.00;100001.09;5333979;26;20327;-86
2024/04/21 00:07:48;;;;;;;;;;;;;;;4.40;100.00;100000.94;5333819;26;19929;-86
2024/04/21 00:10:13;;;;;;;;;;;;;;;4.31;100.00;99995.84;5362337;26;19930;-87
2024/04/21 00:12:38;;;;;;;;;;;;;;;4.31;100.00;99995.84;5363557;26;19930;-83
2024/04/21 00:15:04;;;;;;;;;;;;;;;4.32;100.00;99992.31;5332901;26;19999;-88
2024/04/21 00:17:33;;;;;;;;;;;;;;;4.29;100.00;100000.22;5333851;26;19961;-95
2024/04/21 00:19:58;;;;;;;;;;;;;;;4.32;100.00;99997.53;5363512;26;19977;-85
2024/04/21 00:22:24;;;;;;;;;;;;;;;4.36;100.00;99999.25;5363607;26;19929;-82
2024/04/21 00:24:49;;;;;;;;;;;;;;;4.30;100.00;99994.09;5361519;26;19957;-93
2024/04/21 00:27:14;;;;;;;;;;;;;;;4.30;100.00;99979.19;5363729;26;19930;-89
2024/04/21 00:29:40;;;;;;;;;;;;;;;4.31;100.00;99985.34;5363602;26;19930;-89
2024/04/21 00:32:05;;;;;;;;;;;;;;;4.38;100.00;99981.72;5364958;26;19945;-88
2024/04/21 00:34:30;;;;;;;;;;;;;;;4.26;100.00;99987.13;5363278;26;20009;-88
2024/04/21 00:36:56;;;;;;;;;;;;;;;4.32;100.00;99979.19;5364645;26;19929;-89
2024/04/21 00:39:21;;;;;;;;;;;;;;;4.33;100.00;99967.81;5361236;26;19937;-86
2024/04/21 00:41:46;;;;;;;;;;;;;;;4.33;100.00;99975.69;5362274;26;19930;-87
2024/04/21 00:44:11;;;;;;;;;;;;;;;4.35;100.00;99968.66;5362638;26;19938;-88
2024/04/21 00:46:38;;;;;;;;;;;;;;;4.25;100.00;99967.91;5364017;26;19930;-83
2024/04/21 00:49:04;;;;;;;;;;;;;;;4.32;100.00;99966.06;5333229;26;20256;-88
2024/04/21 00:51:29;;;;;;;;;;;;;;;4.28;100.00;99964.41;5363526;26;19930;-89
2024/04/21 00:53:54;;;;;;;;;;;;;;;4.24;100.00;99957.44;5361868;26;19938;-88
2024/04/21 00:56:27;;;;;;;;;;;;;;;4.29;100.00;99967.00;5363671;26;20307;-89
2024/04/21 00:58:53;;;;;;;;;;;;;;;4.23;100.00;99966.19;5332365;26;19969;-89
2024/04/21 01:01:21;;;;;;;;;;;;;;;4.22;100.00;99969.72;5363381;26;20369;-90
2024/04/21 01:03:46;;;;;;;;;;;;;;;4.22;100.00;99964.47;5363338;26;20365;-90
2024/04/21 01:06:11;;;;;;;;;;;;;;;4.29;100.00;99961.75;5363452;26;19930;-90
2024/04/21 01:08:36;;;;;;;;;;;;;;;4.24;100.00;99971.41;5330811;26;19940;-86
2024/04/21 01:11:02;;;;;;;;;;;;;;;4.38;100.00;99958.13;5365382;26;19998;-90
2024/04/21 01:13:27;;;;;;;;;;;;;;;4.32;100.00;99964.34;5332614;26;20254;-88
2024/04/21 01:15:53;;;;;;;;;;;;;;;4.26;100.00;99947.78;5362755;26;19945;-88
2024/04/21 01:18:19;;;;;;;;;;;;;;;4.26;100.00;99948.69;5362821;26;19937;-87
2024/04/21 01:20:44;;;;;;;;;;;;;;;4.33;100.00;99952.06;5362773;26;19998;-87
2024/04/21 01:23:10;;;;;;;;;;;;;;;4.37;100.00;99945.88;5330676;26;19929;-86
2024/04/21 01:25:35;;;;;;;;;;;;;;;4.35;100.00;99939.78;5331636;26;20330;-83
2024/04/21 07:16:27;;;;;;;;;;;;;;;4.08;100.00;99896.47;5311551;27;19978;-81
2024/04/21 07:18:52;;;;;;;;;;;;;;;4.11;100.00;99907.78;5282830;27;19930;-84
2024/04/21 07:21:17;;;;;;;;;;;;;;;4.12;100.00;99891.16;5313036;26;19931;-82
2024/04/21 07:23:43;;;;;;;;;;;;;;;4.16;100.00;99900.75;5313058;27;20265;-84
2024/04/21 07:26:08;;;;;;;;;;;;;;;4.14;100.00;99902.50;5282712;27;19939;-84
2024/04/21 07:28:34;;;;;;;;;;;;;;;4.05;100.00;99910.50;5311428;26;19931;-83
2024/04/21 07:30:59;;;;;;;;;;;;;;;4.09;100.00;99912.19;5282692;27;20362;-84
2024/04/21 07:33:24;;;;;;;;;;;;;;;4.12;100.00;99927.03;5312790;27;20266;-83
2024/04/21 07:35:49;;;;;;;;;;;;;;;4.12;100.00;99933.13;5313079;26;19939;-84
2024/04/21 07:38:14;;;;;;;;;;;;;;;4.15;100.00;99930.47;5312689;27;19938;-85
2024/04/21 07:40:40;;;;;;;;;;;;;;;4.10;100.00;99934.91;5282788;27;19937;-85
2024/04/21 07:43:05;;;;;;;;;;;;;;;4.09;100.00;99924.44;5311046;26;20408;-85
2024/04/21 07:45:30;;;;;;;;;;;;;;;4.03;100.00;99921.91;5282851;27;19938;-85
2024/04/21 07:47:55;;;;;;;;;;;;;;;3.91;100.00;99920.31;5312714;27;19930;-84
2024/04/21 07:50:21;;;;;;;;;;;;;;;3.93;100.00;99914.16;5312803;26;19938;-84
2024/04/21 07:52:47;;;;;;;;;;;;;;;3.95;100.00;99919.38;5312288;26;20261;-87
2024/04/21 07:55:12;;;;;;;;;;;;;;;3.86;100.00;99912.53;5311213;26;19930;-83
2024/04/21 07:57:37;;;;;;;;;;;;;;;3.85;100.00;99913.41;5312396;27;20297;-86
2024/04/21 08:00:02;;;;;;;;;;;;;;;3.91;100.00;99912.44;5311079;26;20000;-84
2024/04/21 08:02:28;;;;;;;;;;;;;;;3.90;100.00;99916.81;5312666;26;20284;-84
2024/04/21 08:04:53;;;;;;;;;;;;;;;3.93;100.00;99910.69;5312669;27;19930;-84
2024/04/21 08:07:19;;;;;;;;;;;;;;;3.95;100.00;99909.75;5282124;27;20365;-84
2024/04/21 08:09:44;;;;;;;;;;;;;;;3.87;100.00;99908.13;5312661;26;20391;-86
2024/04/21 08:12:09;;;;;;;;;;;;;;;3.92;100.00;99901.06;5312105;26;19942;-84
2024/04/21 08:14:34;;;;;;;;;;;;;;;3.86;100.00;99899.41;5310895;26;19931;-84
2024/04/21 08:17:00;;;;;;;;;;;;;;;3.87;100.00;99902.91;5312495;27;19934;-86
2024/04/21 08:19:25;;;;;;;;;;;;;;;4.00;100.00;99896.59;5281809;27;20352;-84
2024/04/21 08:21:50;;;;;;;;;;;;;;;3.97;100.00;99897.50;5282065;27;19978;-83
2024/04/21 08:24:15;;;;;;;;;;;;;;;3.88;100.00;99902.00;5312425;27;19937;-83
2024/04/21 08:26:42;;;;;;;;;;;;;;;3.93;100.00;99906.28;5310929;26;20216;-82
2024/04/21 08:29:08;;;;;;;;;;;;;;;3.98;100.00;99908.84;5310664;26;20001;-83
2024/04/21 08:31:33;;;;;;;;;;;;;;;3.94;100.00;99901.91;5281829;27;19934;-83
2024/04/21 08:33:58;;;;;;;;;;;;;;;3.96;100.00;99895.78;5313260;26;19946;-83
2024/04/21 08:36:24;;;;;;;;;;;;;;;3.89;100.00;99898.50;5281899;26;19931;-83
2024/04/21 08:38:49;;;;;;;;;;;;;;;3.91;100.00;99897.59;5310759;27;19934;-84
2024/04/21 08:41:19;;;;;;;;;;;;;;;3.96;100.00;99901.00;5280828;26;19931;-85
2024/04/21 08:43:46;;;;;;;;;;;;;;;3.89;100.00;99903.72;5280299;27;19934;-84
2024/04/21 08:46:12;;;;;;;;;;;;;;;3.95;100.00;99901.03;5312032;26;20254;-85
2024/04/21 08:48:37;;;;;;;;;;;;;;;3.91;100.00;99901.94;5281720;27;19936;-84
2024/04/21 08:51:05;;;;;;;;;;;;;;;3.99;100.00;99900.13;5281713;27;19930;-83
2024/04/21 08:53:30;;;;;;;;;;;;;;;3.99;100.00;99894.88;5311898;27;19930;-84
2024/04/21 08:55:58;;;;;;;;;;;;;;;3.88;100.00;99896.75;5281403;27;19930;-84
2024/04/21 08:58:24;;;;;;;;;;;;;;;3.92;100.00;99898.44;5310179;27;20276;-84
2024/04/21 09:00:49;;;;;;;;;;;;;;;3.91;100.00;99894.09;5311826;27;19930;-85
2024/04/21 09:03:15;;;;;;;;;;;;;;;3.89;100.00;99894.09;5280132;27;19930;-85
2024/04/21 09:05:44;;;;;;;;;;;;;;;3.92;100.00;99896.69;5281691;27;19931;-87
2024/04/21 09:08:09;;;;;;;;;;;;;;;3.92;100.00;99896.69;5310776;27;19931;-83
2024/04/21 09:10:35;;;;;;;;;;;;;;;3.99;100.00;99892.25;5311485;27;20395;-86
2024/04/21 09:13:01;;;;;;;;;;;;;;;3.98;100.00;99899.22;5279984;27;19930;-83
2024/04/21 09:15:26;;;;;;;;;;;;;;;4.03;100.00;99893.91;5311512;27;19941;-82
2024/04/21 09:17:52;;;;;;;;;;;;;;;4.12;100.00;99885.91;5311654;27;19938;-84
2024/04/21 09:20:17;;;;;;;;;;;;;;;4.17;100.00;99891.97;5311355;26;20368;-83
2024/04/21 09:22:42;;;;;;;;;;;;;;;4.17;100.00;99896.34;5281297;27;19946;-83
2024/04/21 09:25:07;;;;;;;;;;;;;;;4.18;100.00;99900.72;5311395;27;19938;-84
2024/04/21 09:27:33;;;;;;;;;;;;;;;4.25;100.00;99918.06;5311372;26;20265;-82
2024/04/21 09:30:01;;;;;;;;;;;;;;;4.19;100.00;99915.53;5310144;27;19963;-85
2024/04/21 09:32:26;;;;;;;;;;;;;;;4.18;100.00;99922.56;5311136;27;19931;-81
2024/04/21 09:34:55;;;;;;;;;;;;;;;4.17;100.00;99912.94;5311456;27;19930;-82
2024/04/21 09:37:20;;;;;;;;;;;;;;;4.13;100.00;99907.75;5311254;27;20370;-81
2024/04/21 09:39:46;;;;;;;;;;;;;;;4.08;100.00;99902.56;5280773;27;20000;-82
2024/04/21 09:42:15;;;;;;;;;;;;;;;4.10;100.00;99906.06;5281128;27;19935;-82
2024/04/21 09:44:41;;;;;;;;;;;;;;;4.08;100.00;99897.34;5308166;26;19930;-82
2024/04/21 09:47:06;;;;;;;;;;;;;;;4.11;100.00;99905.16;5280949;27;20255;-82
2024/04/21 09:49:32;;;;;;;;;;;;;;;4.09;100.00;99900.84;5311218;26;19937;-82
2024/04/21 09:51:59;;;;;;;;;;;;;;;4.11;100.00;99897.28;5310991;27;19938;-82
2024/04/21 09:54:25;;;;;;;;;;;;;;;4.10;100.00;99897.31;5310821;27;19938;-83
2024/04/21 09:56:52;;;;;;;;;;;;;;;4.16;100.00;99897.22;5280602;27;19934;-79
2024/04/21 12:44:56;;;;;;;;;;;;;;;4.98;100.00;99936.16;5326189;26;19934;-94
2024/04/21 12:47:22;;;;;;;;;;;;;;;4.99;100.00;99944.88;5322905;26;19930;-88
2024/04/21 12:49:47;;;;;;;;;;;;;;;5.07;100.00;99940.38;5345529;26;19941;-87
2024/04/21 12:52:13;;;;;;;;;;;;;;;5.09;100.00;99951.72;5345295;26;20478;-83
2024/04/21 12:54:38;;;;;;;;;;;;;;;5.07;100.00;99949.13;5345269;26;19940;-83
2024/04/21 12:57:03;;;;;;;;;;;;;;;5.09;100.00;99955.22;5346178;26;20373;-91
2024/04/21 12:59:29;;;;;;;;;;;;;;;5.09;100.00;99959.63;5345765;26;19961;-89
2024/04/21 13:01:54;;;;;;;;;;;;;;;5.06;100.00;99957.03;5345371;26;19930;-88
2024/04/21 13:04:19;;;;;;;;;;;;;;;5.15;100.00;99959.47;5313836;26;19941;-90
2024/04/21 13:06:44;;;;;;;;;;;;;;;5.17;100.00;99977.84;5346502;26;19937;-88
2024/04/21 13:09:10;;;;;;;;;;;;;;;5.11;100.00;99957.81;5344354;26;19930;-86
2024/04/21 13:11:35;;;;;;;;;;;;;;;5.06;100.00;99959.66;5313622;26;19941;-85
2024/04/21 13:14:00;;;;;;;;;;;;;;;5.05;100.00;99952.66;5343885;26;19956;-86
2024/04/21 13:16:26;;;;;;;;;;;;;;;5.06;100.00;99957.91;5344569;26;19937;-85
2024/04/21 13:18:51;;;;;;;;;;;;;;;5.18;100.00;99954.16;5341401;26;20389;-84
2024/04/21 13:21:17;;;;;;;;;;;;;;;5.18;100.00;99959.41;5345864;26;20349;-84
2024/04/21 13:23:42;;;;;;;;;;;;;;;5.09;100.00;99965.72;5342899;26;20341;-84
2024/04/21 13:26:07;;;;;;;;;;;;;;;5.13;100.00;99956.03;5346006;26;19937;-84
2024/04/21 13:28:32;;;;;;;;;;;;;;;5.14;100.00;99968.28;5344492;26;19930;-85
2024/04/21 13:30:59;;;;;;;;;;;;;;;5.12;100.00;99972.66;5344907;26;19930;-85
2024/04/21 13:33:24;;;;;;;;;;;;;;;5.09;100.00;99970.13;5315113;26;19934;-90
2024/04/21 13:35:50;;;;;;;;;;;;;;;5.14;100.00;99965.66;5343656;26;20388;-86
2024/04/21 13:38:15;;;;;;;;;;;;;;;5.08;100.00;99968.38;5344347;26;19938;-84
2024/04/21 13:40:44;;;;;;;;;;;;;;;5.15;100.00;99977.00;5343928;26;20029;-85
2024/04/21 13:43:09;;;;;;;;;;;;;;;5.20;100.00;99969.91;5342855;26;20000;-88
2024/04/21 13:45:34;;;;;;;;;;;;;;;5.09;100.00;99964.88;5343934;26;19999;-84
2024/04/21 13:48:02;;;;;;;;;;;;;;;5.13;100.00;99961.28;5345637;26;19934;-88
2024/04/21 13:50:28;;;;;;;;;;;;;;;5.16;100.00;99961.22;5340996;26;19936;-86
2024/04/21 13:52:53;;;;;;;;;;;;;;;5.09;100.00;99960.47;5312390;26;19948;-84
2024/04/21 13:55:18;;;;;;;;;;;;;;;5.14;100.00;99964.75;5342593;26;19937;-87
2024/04/21 13:57:43;;;;;;;;;;;;;;;5.19;100.00;99971.69;5343780;26;19938;-85
2024/04/21 14:00:10;;;;;;;;;;;;;;;5.15;100.00;99954.22;5314041;26;19930;-84
2024/04/21 14:02:35;;;;;;;;;;;;;;;5.24;100.00;99961.09;5343834;26;19937;-88
2024/04/21 14:05:01;;;;;;;;;;;;;;;5.21;100.00;99967.25;5345374;26;19930;-84
2024/04/21 14:07:26;;;;;;;;;;;;;;;5.17;100.00;99964.69;5344979;26;20335;-85
2024/04/21 14:09:51;;;;;;;;;;;;;;;5.15;100.00;99964.72;5314086;26;19930;-93
2024/04/21 14:12:16;;;;;;;;;;;;;;;5.14;100.00;99967.38;5343559;26;19992;-85
2024/04/21 14:14:43;;;;;;;;;;;;;;;5.18;100.00;99964.69;5344908;26;19930;-83
2024/04/21 14:17:08;;;;;;;;;;;;;;;5.17;100.00;99962.97;5343346;26;20357;-84
2024/04/21 14:19:34;;;;;;;;;;;;;;;5.17;100.00;99962.06;5342218;26;19937;-88
2024/04/21 14:21:59;;;;;;;;;;;;;;;5.19;100.00;99971.69;5343623;26;19930;-89
2024/04/21 14:24:24;;;;;;;;;;;;;;;5.23;100.00;99977.72;5313552;26;19930;-87
2024/04/21 14:26:49;;;;;;;;;;;;;;;5.22;100.00;99983.91;5314475;26;20000;-85
2024/04/21 14:29:15;;;;;;;;;;;;;;;5.97;100.00;99979.84;5339319;26;19930;-84
2024/04/21 14:31:40;;;;;;;;;;;;;;;5.62;100.00;99988.41;5343440;26;19939;-86
2024/04/21 14:34:06;;;;;;;;;;;;;;;5.53;100.00;99994.69;5314278;26;21027;-85
2024/04/21 14:36:31;;;;;;;;;;;;;;;5.51;100.00;99993.00;5344829;26;20332;-84
2024/04/21 14:38:56;;;;;;;;;;;;;;;5.46;100.00;99990.47;5343128;26;19930;-83
2024/04/21 14:41:22;;;;;;;;;;;;;;;5.44;100.00;99987.88;5343426;26;19934;-83
2024/04/21 14:43:47;;;;;;;;;;;;;;;5.43;100.00;100003.66;5342504;26;19999;-84
2024/04/21 14:46:12;;;;;;;;;;;;;;;5.42;100.00;99996.66;5344524;26;19945;-84
2024/04/21 14:48:37;;;;;;;;;;;;;;;5.44;100.00;100001.00;5342997;26;19934;-83
2024/04/21 14:51:03;;;;;;;;;;;;;;;5.50;100.00;100009.66;5344400;26;19930;-84
2024/04/21 14:53:29;;;;;;;;;;;;;;;5.52;100.00;100011.38;5342420;26;19930;-85
2024/04/21 14:56:03;;;;;;;;;;;;;;;5.56;100.00;100014.81;5314020;26;19965;-82
2024/04/21 14:58:29;;;;;;;;;;;;;;;5.52;100.00;100026.28;5339789;26;19949;-84
2024/04/21 15:00:54;;;;;;;;;;;;;;;5.48;100.00;100025.47;5343140;26;19937;-87
2024/04/21 15:03:19;;;;;;;;;;;;;;;5.51;100.00;100025.41;5316955;26;19938;-85
2024/04/21 15:05:45;;;;;;;;;;;;;;;5.48;100.00;100014.94;5317149;26;19942;-85
2024/04/21 15:08:10;;;;;;;;;;;;;;;5.43;100.00;100019.44;5317269;26;20361;-86
2024/04/21 15:10:35;;;;;;;;;;;;;;;5.47;100.00;100021.09;5303094;26;19931;-87
2024/04/21 15:13:01;;;;;;;;;;;;;;;5.53;100.00;100018.34;5344653;26;19930;-84
2024/04/21 15:15:27;;;;;;;;;;;;;;;5.54;100.00;100025.34;5315947;26;19940;-85
2024/04/21 15:17:53;;;;;;;;;;;;;;;5.52;100.00;100016.63;5316928;26;20365;-85
2024/04/21 15:20:18;;;;;;;;;;;;;;;5.53;100.00;100013.09;5315660;26;19937;-86
2024/04/21 15:22:43;;;;;;;;;;;;;;;5.61;100.00;100026.97;5347390;26;20348;-86
2024/04/21 15:25:08;;;;;;;;;;;;;;;5.58;100.00;100034.91;5346447;26;20290;-84
2024/04/21 15:27:34;;;;;;;;;;;;;;;5.61;100.00;100021.69;5344088;26;20420;-85
2024/04/21 15:29:59;;;;;;;;;;;;;;;5.61;100.00;100028.72;5347469;26;20594;-87
2024/04/21 15:32:25;;;;;;;;;;;;;;;5.55;100.00;100016.59;5315890;26;19930;-86
2024/04/21 15:34:50;;;;;;;;;;;;;;;5.53;100.00;100018.34;5347365;26;19945;-84
2024/04/21 15:37:15;;;;;;;;;;;;;;;5.58;100.00;100024.38;5346375;26;19934;-86
2024/04/21 15:39:41;;;;;;;;;;;;;;;5.56;100.00;100018.28;5345580;26;19937;-86
2024/04/21 15:45:31;;;;;;;;;;;;;;;5.58;100.00;100024.38;5336846;21;20000;-83
2024/04/21 15:47:56;;;;;;;;;;;;;;;5.55;100.00;100026.22;5315886;26;19942;-83
2024/04/21 15:50:22;;;;;;;;;;;;;;;5.54;100.00;100027.13;5347119;26;19937;-85
2024/04/21 15:52:47;;;;;;;;;;;;;;;5.55;100.00;100023.59;5347017;26;20000;-87
2024/04/21 15:55:14;;;;;;;;;;;;;;;5.51;100.00;100028.03;5345659;26;19937;-86
2024/04/21 15:57:45;;;;;;;;;;;;;;;5.54;100.00;100028.00;5344671;26;19930;-87
2024/04/21 16:00:11;;;;;;;;;;;;;;;5.54;100.00;100041.13;5316026;26;20470;-86
2024/04/21 16:03:07;;;;;;;;;;;;;;;5.58;100.00;100045.41;5346388;26;19937;-87
2024/04/21 16:05:32;;;;;;;;;;;;;;;5.57;100.00;100046.34;5346877;26;19937;-86
2024/04/21 16:07:58;;;;;;;;;;;;;;;5.55;100.00;100039.34;5346932;26;20297;-85
2024/04/21 16:10:23;;;;;;;;;;;;;;;5.53;100.00;100039.38;5316470;26;19930;-86
2024/04/21 16:12:49;;;;;;;;;;;;;;;5.54;100.00;100046.38;5313358;26;19941;-86
2024/04/21 16:17:49;;;;;;;;;;;;;;;5.56;100.00;100044.59;5493296;21;20033;-87
2024/04/21 16:20:15;;;;;;;;;;;;;;;5.55;100.00;100048.13;5322647;26;20325;-85
2024/04/21 16:22:40;;;;;;;;;;;;;;;5.52;100.00;100042.94;5328353;26;19938;-85
2024/04/21 16:25:07;;;;;;;;;;;;;;;5.52;100.00;100045.56;5327869;26;19930;-87
2024/04/21 16:27:32;;;;;;;;;;;;;;;5.56;100.00;100035.84;5324794;26;19942;-85
2024/04/21 16:29:57;;;;;;;;;;;;;;;5.55;100.00;100037.63;5326337;26;20284;-85
2024/04/21 16:32:23;;;;;;;;;;;;;;;5.55;100.00;100035.00;5330287;26;19930;-86
2024/04/21 16:34:48;;;;;;;;;;;;;;;5.54;100.00;100035.88;5326154;26;19931;-88
2024/04/21 16:37:13;;;;;;;;;;;;;;;5.56;100.00;100044.59;5342226;26;19930;-87
2024/04/21 16:40:05;;;;;;;;;;;;;;;5.57;100.00;100045.47;5330615;26;19937;-86
2024/04/21 16:42:31;;;;;;;;;;;;;;;5.55;100.00;100041.97;5323885;26;19943;-85
2024/04/21 16:44:56;;;;;;;;;;;;;;;5.56;100.00;100039.31;5326473;26;20345;-85
2024/04/21 16:47:27;;;;;;;;;;;;;;;5.56;100.00;100047.22;5322520;26;20030;-84
2024/04/21 16:49:52;;;;;;;;;;;;;;;5.58;100.00;100045.41;5328179;26;19931;-86
2024/04/21 16:52:17;;;;;;;;;;;;;;;5.55;100.00;100044.63;5329139;26;19930;-85
2024/04/21 16:54:43;;;;;;;;;;;;;;;5.54;100.00;100051.66;5327886;26;21089;-86
2024/04/21 16:57:12;;;;;;;;;;;;;;;5.58;100.00;100047.19;5339383;26;19937;-86
2024/04/21 16:59:38;;;;;;;;;;;;;;;5.61;100.00;100048.00;5328792;26;20012;-87
2024/04/21 17:02:03;;;;;;;;;;;;;;;5.62;100.00;100055.00;5328092;26;20362;-89
2024/04/21 17:07:37;;;;;;;;;;;;;;;5.64;100.00;100063.72;5325775;26;20448;-87
2024/04/21 17:10:03;;;;;;;;;;;;;;;5.64;100.00;100061.09;5324882;26;20289;-87
2024/04/21 17:12:32;;;;;;;;;;;;;;;5.60;100.00;100055.91;5325442;26;19930;-85
2024/04/21 17:16:09;;;;;;;;;;;;;;;5.59;100.00;100054.19;5325633;26;20374;-85
2024/04/21 17:18:29;;;;;;;;;;;;;;;5.60;100.00;100067.31;5251291;27;19938;-89
2024/04/21 17:20:54;;;;;;;;;;;;;;;5.64;100.00;100068.13;5254825;27;19931;-87
2024/04/21 17:23:19;;;;;;;;;;;;;;;5.64;100.00;100074.22;5299635;26;19937;-84
2024/04/21 17:25:45;;;;;;;;;;;;;;;5.65;100.00;100077.75;5324438;26;19943;-85
2024/04/21 17:28:10;;;;;;;;;;;;;;;5.64;100.00;100084.75;5324844;26;19931;-85
2024/04/21 17:30:35;;;;;;;;;;;;;;;5.61;100.00;100083.94;5330214;26;20555;-86
2024/04/21 17:33:00;;;;;;;;;;;;;;;5.63;100.00;100088.28;5326959;26;19930;-88
2024/04/21 17:35:26;;;;;;;;;;;;;;;5.63;100.00;100088.28;5327783;26;19930;-88
2024/04/21 17:37:53;;;;;;;;;;;;;;;5.60;100.00;100092.72;5326198;26;20001;-90
2024/04/21 17:40:19;;;;;;;;;;;;;;;5.63;100.00;100096.19;5329824;26;19929;-86
2024/04/21 17:42:44;;;;;;;;;;;;;;;5.68;100.00;100095.22;5324959;26;20037;-87
2024/04/21 17:45:09;;;;;;;;;;;;;;;5.69;100.00;100097.81;5326764;26;19930;-91
2024/04/21 17:47:35;;;;;;;;;;;;;;;5.73;100.00;100098.66;5327587;26;19999;-85
2024/04/21 17:50:00;;;;;;;;;;;;;;;5.68;100.00;100109.25;5327369;26;19930;-86
2024/04/21 17:52:25;;;;;;;;;;;;;;;5.67;100.00;100120.66;5327525;26;19930;-85
2024/04/21 17:54:54;;;;;;;;;;;;;;;5.70;100.00;100123.22;5328380;26;20001;-88
2024/04/21 17:57:20;;;;;;;;;;;;;;;5.69;100.00;100128.50;5306605;26;19930;-83
2024/04/21 17:59:48;;;;;;;;;;;;;;;5.71;100.00;100142.47;5328286;26;19945;-83
2024/04/21 18:02:16;;;;;;;;;;;;;;;5.71;100.00;100142.47;5325576;26;20354;-93
2024/04/21 18:04:41;;;;;;;;;;;;;;;5.75;100.00;100141.56;5327787;26;19937;-84
2024/04/21 18:07:06;;;;;;;;;;;;;;;5.78;100.00;100146.75;5328365;26;19930;-83
2024/04/21 18:09:32;;;;;;;;;;;;;;;5.77;100.00;100139.75;5325187;26;20397;-81
2024/04/21 18:11:57;;;;;;;;;;;;;;;5.78;100.00;100149.38;5322747;26;19930;-84
2024/04/21 18:14:22;;;;;;;;;;;;;;;5.77;100.00;100139.75;5327277;26;19934;-83
2024/04/21 18:16:48;;;;;;;;;;;;;;;5.79;100.00;100145.84;5324073;26;19941;-84
2024/04/21 18:19:14;;;;;;;;;;;;;;;5.73;100.00;100145.97;5321920;26;19930;-83
2024/04/21 18:21:42;;;;;;;;;;;;;;;5.74;100.00;100148.53;5316843;26;19930;-84
2024/04/21 18:24:07;;;;;;;;;;;;;;;5.77;100.00;100147.63;5321472;26;19930;-88
2024/04/21 18:26:35;;;;;;;;;;;;;;;5.77;100.00;100151.13;5325948;26;20268;-83
2024/04/21 18:29:00;;;;;;;;;;;;;;;5.74;100.00;100147.69;5327513;26;19960;-84
2024/04/21 18:31:25;;;;;;;;;;;;;;;5.77;100.00;100152.91;5326989;26;19930;-85
2024/04/21 18:33:50;;;;;;;;;;;;;;;5.74;100.00;100156.44;5328232;26;19930;-84
2024/04/21 18:36:16;;;;;;;;;;;;;;;5.75;100.00;100159.97;5329071;26;20365;-84
2024/04/21 18:38:41;;;;;;;;;;;;;;;5.76;100.00;100161.66;5331392;26;20299;-82
2024/04/21 18:41:06;;;;;;;;;;;;;;;5.73;100.00;100169.66;5331085;26;19938;-85
2024/04/21 18:43:32;;;;;;;;;;;;;;;5.75;100.00;100175.72;5327896;26;19934;-84
2024/04/21 18:46:00;;;;;;;;;;;;;;;5.79;100.00;100177.41;5330428;26;19938;-83
2024/04/21 18:48:25;;;;;;;;;;;;;;;5.75;100.00;100175.72;5330399;26;20373;-83
2024/04/21 18:50:50;;;;;;;;;;;;;;;5.77;100.00;100177.44;5328426;26;20001;-83
2024/04/21 18:53:19;;;;;;;;;;;;;;;5.76;100.00;100188.84;5330989;26;20000;-82
2024/04/21 18:55:45;;;;;;;;;;;;;;;5.79;100.00;100177.41;5328072;26;19930;-84
2024/04/21 18:58:10;;;;;;;;;;;;;;;5.79;100.00;100178.28;5329045;26;20282;-84
2024/04/21 19:00:36;;;;;;;;;;;;;;;5.76;100.00;100178.34;5330157;26;19942;-84
2024/04/21 19:03:01;;;;;;;;;;;;;;;5.80;100.00;100179.16;5326952;26;19999;-83
2024/04/21 19:05:33;;;;;;;;;;;;;;;5.82;100.00;100182.59;5330583;26;19942;-84
2024/04/21 19:07:59;;;;;;;;;;;;;;;5.81;100.00;100186.16;5328538;26;19934;-84
2024/04/21 19:10:26;;;;;;;;;;;;;;;5.79;100.00;100185.28;5330618;26;20369;-85
2024/04/21 19:16:05;;;;;;;;;;;;;;;5.77;100.00;100190.56;5316700;26;20277;-83
2024/04/21 19:18:30;;;;;;;;;;;;;;;5.73;100.00;100188.03;5329771;26;19934;-83
2024/04/21 19:21:47;;;;;;;;;;;;;;;5.76;100.00;100193.22;5330521;26;19930;-84
2024/04/21 19:24:12;;;;;;;;;;;;;;;5.77;100.00;100195.84;5330237;26;19966;-84
2024/04/21 19:26:37;;;;;;;;;;;;;;;5.80;100.00;100189.66;5332096;26;19990;-85
2024/04/21 19:29:03;;;;;;;;;;;;;;;5.80;100.00;100201.03;5328248;26;19938;-84
2024/04/21 19:31:28;;;;;;;;;;;;;;;5.80;100.00;100200.19;5328055;26;20004;-86
2024/04/21 19:33:53;;;;;;;;;;;;;;;5.79;100.00;100193.19;5329160;26;19938;-85
2024/04/21 19:36:19;;;;;;;;;;;;;;;5.79;100.00;100198.44;5329992;26;19930;-84
2024/04/21 19:38:44;;;;;;;;;;;;;;;5.77;100.00;100200.22;5330564;26;20007;-86
2024/04/21 19:41:09;;;;;;;;;;;;;;;5.77;100.00;100193.19;5330249;26;19930;-85
2024/04/21 19:43:34;;;;;;;;;;;;;;;5.77;100.00;100205.50;5394458;21;19937;-85
2024/04/21 19:46:00;;;;;;;;;;;;;;;5.78;100.00;100204.59;5368347;26;19944;-85
2024/04/21 19:48:25;;;;;;;;;;;;;;;5.78;100.00;100212.50;5368431;26;19978;-86
2024/04/21 19:51:00;;;;;;;;;;;;;;;5.80;100.00;100205.44;5368628;26;19941;-85
2024/04/21 19:53:25;;;;;;;;;;;;;;;5.81;100.00;100208.03;5366784;26;19929;-85
2024/04/21 19:55:50;;;;;;;;;;;;;;;5.79;100.00;100203.69;5368469;26;20386;-83
2024/04/21 19:58:15;;;;;;;;;;;;;;;5.80;100.00;100210.69;5368532;26;19937;-83
2024/04/21 20:00:41;;;;;;;;;;;;;;;5.83;100.00;100211.50;5398833;26;19936;-86
2024/04/21 20:03:06;;;;;;;;;;;;;;;5.80;100.00;100211.56;5398783;26;19940;-89
2024/04/21 20:05:38;;;;;;;;;;;;;;;5.82;100.00;100209.78;5368327;26;20368;-87
2024/04/21 20:08:04;;;;;;;;;;;;;;;5.82;100.00;100214.16;5368180;26;19936;-84
2024/04/21 20:10:29;;;;;;;;;;;;;;;5.80;100.00;100213.34;5368708;26;20263;-84
2024/04/21 20:12:54;;;;;;;;;;;;;;;5.80;100.00;100222.09;5398367;26;20374;-85
2024/04/21 20:20:58;;;;;;;;;;;;;;;5.83;100.00;100234.31;5397952;26;19936;-85
2024/04/21 20:23:23;;;;;;;;;;;;;;;5.82;100.00;100235.19;5399204;26;19937;-84
2024/04/21 20:25:48;;;;;;;;;;;;;;;5.84;100.00;100238.69;5400364;26;19929;-86
2024/04/21 20:28:14;;;;;;;;;;;;;;;5.82;100.00;100236.09;5397861;26;20426;-86
2024/04/21 20:30:40;;;;;;;;;;;;;;;5.84;100.00;100236.06;5399105;26;19940;-85
2024/04/21 20:33:05;;;;;;;;;;;;;;;5.84;100.00;100241.34;5367678;26;20356;-85
2024/04/21 20:35:34;;;;;;;;;;;;;;;5.85;100.00;100236.94;5367717;26;20256;-85
2024/04/21 20:38:00;;;;;;;;;;;;;;;5.82;100.00;100237.84;5368818;26;20264;-85
2024/04/21 20:40:25;;;;;;;;;;;;;;;5.84;100.00;100230.81;5366566;26;19930;-87
2024/04/21 20:42:50;;;;;;;;;;;;;;;5.85;100.00;100237.78;5365479;26;20294;-85
2024/04/21 20:45:15;;;;;;;;;;;;;;;5.85;100.00;100232.53;5368002;26;19929;-86
2024/04/21 20:47:40;;;;;;;;;;;;;;;5.82;100.00;100229.94;5369026;26;20003;-86
2024/04/21 20:50:06;;;;;;;;;;;;;;;5.83;100.00;100234.31;5398956;26;19930;-87
2024/04/21 20:52:33;;;;;;;;;;;;;;;5.86;100.00;100236.91;5400380;26;19949;-84
2024/04/21 20:54:58;;;;;;;;;;;;;;;5.85;100.00;100235.16;5368087;26;19935;-87
2024/04/21 20:57:23;;;;;;;;;;;;;;;5.83;100.00;100231.69;5366382;26;19929;-86
2024/04/21 20:59:50;;;;;;;;;;;;;;;5.86;100.00;100236.03;5365657;26;19933;-86
2024/04/21 21:02:15;;;;;;;;;;;;;;;5.86;100.00;100233.41;5369305;26;20020;-87
2024/04/21 21:04:40;;;;;;;;;;;;;;;5.83;100.00;100237.81;5398507;26;19930;-84
2024/04/21 21:07:06;;;;;;;;;;;;;;;5.84;100.00;100236.06;5398501;26;19936;-87
2024/04/21 21:09:32;;;;;;;;;;;;;;;5.84;100.00;100243.97;5368601;26;19999;-86
2024/04/21 21:11:57;;;;;;;;;;;;;;;5.84;100.00;100238.69;5367313;26;20315;-86
2024/04/21 21:14:24;;;;;;;;;;;;;;;5.83;100.00;100245.69;5397771;26;19944;-86
2024/04/21 21:16:50;;;;;;;;;;;;;;;5.83;100.00;100240.44;5398405;26;19953;-87
2024/04/21 21:19:15;;;;;;;;;;;;;;;5.83;100.00;100231.69;5399518;26;19933;-83
2024/04/21 21:21:40;;;;;;;;;;;;;;;5.84;100.00;100236.06;5398871;26;19933;-85
2024/04/21 21:24:07;;;;;;;;;;;;;;;5.86;100.00;100234.28;5397824;26;19936;-85
2024/04/21 21:26:32;;;;;;;;;;;;;;;5.84;100.00;100233.44;5365006;26;19929;-85